Terminal Aerodrome Forecast
Issued by NWS

Home | Current Version | Previous Version | Text Only | Print | Product List | Glossary On
Versions: 1 2 3 4 5 6 7 8 9 10 11 12 13 14 15 16 17 18 19 20 21
000
FTUS43 KMQT 222100 AAD
TAFCMX
TAF AMD
KCMX 222104Z 2221/2318 31015KT P6SM BKN025
     FM230000 31010G18KT P6SM BKN050
     FM230300 32007KT P6SM SKC=

USA.gov is the U.S. government's official web portal to all federal, state and local government web resources and services.